createdAt,value
2018-01-19T00:02:11.115Z,42.42
2018-01-19T00:04:38.266Z,44.15
2018-01-19T00:07:05.134Z,44.28
2018-01-19T00:09:31.978Z,48.33
2018-01-19T00:11:59.102Z,44.83
2018-01-19T00:14:25.929Z,46.40
2018-01-19T00:16:53.300Z,45.40
2018-01-19T00:19:20.135Z,45.50
2018-01-19T00:21:46.975Z,43.78
2018-01-19T00:24:13.807Z,43.92
2018-01-19T00:26:40.632Z,46.15
2018-01-19T00:29:07.725Z,44.85
2018-01-19T00:31:34.610Z,45.83
2018-01-19T00:34:01.458Z,46.45
2018-01-19T00:36:28.562Z,49.90
2018-01-19T00:38:55.381Z,44.78
2018-01-19T00:41:22.190Z,42.00
2018-01-19T00:43:49.055Z,46.67
2018-01-19T00:46:15.889Z,44.55
2018-01-19T00:48:42.749Z,43.47
2018-01-19T00:51:09.823Z,43.63
2018-01-19T00:53:36.666Z,46.30
2018-01-19T00:56:03.809Z,42.28
2018-01-19T00:58:30.978Z,42.10
2018-01-19T01:00:57.781Z,43.67
2018-01-19T01:03:24.646Z,41.65
2018-01-19T01:05:51.452Z,37.33
2018-01-19T01:08:18.284Z,44.30
2018-01-19T01:10:45.113Z,43.60
2018-01-19T01:13:12.231Z,38.42
2018-01-19T01:15:39.049Z,35.73
2018-01-19T01:18:05.890Z,43.63
2018-01-19T01:20:32.717Z,39.78
2018-01-19T01:22:59.538Z,41.33
2018-01-19T01:25:26.577Z,43.22
2018-01-19T01:27:53.434Z,47.35
2018-01-19T01:30:20.543Z,44.45
2018-01-19T01:32:47.714Z,46.05
2018-01-19T01:35:14.850Z,43.35
2018-01-19T01:37:41.698Z,42.20
2018-01-19T01:40:08.524Z,52.58
2018-01-19T01:42:35.374Z,45.28
2018-01-19T01:45:02.523Z,51.40
2018-01-19T01:47:29.366Z,43.75
2018-01-19T01:49:56.515Z,46.08
2018-01-19T01:52:23.610Z,52.42
2018-01-19T01:54:50.413Z,51.55
2018-01-19T01:57:17.253Z,49.78
2018-01-19T01:59:44.402Z,49.33
2018-01-19T02:02:11.506Z,58.40
2018-01-19T02:04:38.375Z,64.10
2018-01-19T02:07:05.177Z,89.37
2018-01-19T02:09:32.048Z,82.85
2018-01-19T02:11:58.857Z,126.78
2018-01-19T02:14:25.701Z,94.50
2018-01-19T02:16:52.544Z,128.18
2018-01-19T02:19:19.434Z,100.25
2018-01-19T02:21:46.502Z,136.07
2018-01-19T02:24:13.362Z,79.50
2018-01-19T02:26:40.177Z,125.40
2018-01-19T02:29:07.002Z,165.02
2018-01-19T02:31:34.105Z,153.43
2018-01-19T02:34:00.950Z,215.87
2018-01-19T02:36:28.074Z,224.27
2018-01-19T02:38:54.954Z,255.50
2018-01-19T02:41:21.796Z,153.40
2018-01-19T02:43:48.610Z,219.10
2018-01-19T02:46:15.448Z,235.65
2018-01-19T02:48:42.522Z,192.55
2018-01-19T02:51:09.637Z,228.02
2018-01-19T02:53:36.473Z,160.43
2018-01-19T02:56:03.289Z,185.17
2018-01-19T02:58:30.373Z,106.87
2018-01-19T03:00:57.249Z,100.10
2018-01-19T03:03:24.365Z,90.43
2018-01-19T03:05:51.513Z,84.28
2018-01-19T03:08:18.365Z,85.50
2018-01-19T03:10:45.185Z,78.32
2018-01-19T03:13:12.050Z,92.68
2018-01-19T03:15:38.910Z,127.35
2018-01-19T03:18:06.043Z,82.65
2018-01-19T03:20:33.189Z,72.35
2018-01-19T03:23:00.056Z,79.53
2018-01-19T03:25:26.870Z,77.25
2018-01-19T03:27:54.026Z,92.70
2018-01-19T03:30:20.935Z,61.60
2018-01-19T03:32:47.737Z,61.65
2018-01-19T03:35:14.587Z,68.47
2018-01-19T03:37:41.710Z,82.82
2018-01-19T03:40:08.862Z,77.70
2018-01-19T03:42:35.673Z,61.33
2018-01-19T03:45:02.863Z,64.87
2018-01-19T03:47:30.051Z,74.53
2018-01-19T03:49:56.837Z,61.10
2018-01-19T03:52:23.687Z,64.03
2018-01-19T03:54:50.497Z,63.80
2018-01-19T03:57:17.308Z,55.90
2018-01-19T03:59:44.145Z,65.20
2018-01-19T04:02:11.264Z,65.73
2018-01-19T04:04:38.418Z,64.05
2018-01-19T04:07:05.262Z,61.08
2018-01-19T04:09:32.336Z,64.03
2018-01-19T04:11:59.458Z,63.10
2018-01-19T04:14:26.533Z,59.78
2018-01-19T04:16:53.372Z,57.17
2018-01-19T04:19:20.497Z,48.35
2018-01-19T04:21:47.358Z,48.28
2018-01-19T04:24:14.496Z,51.90
2018-01-19T04:26:41.538Z,46.92
2018-01-19T04:29:08.685Z,46.42
2018-01-19T04:31:35.492Z,50.15
2018-01-19T04:34:02.358Z,51.15
2018-01-19T04:36:29.255Z,53.95
2018-01-19T04:38:56.327Z,62.88
2018-01-19T04:41:23.425Z,54.45
2018-01-19T04:43:50.286Z,54.67
2018-01-19T04:46:17.093Z,53.78
2018-01-19T04:48:43.946Z,61.75
2018-01-19T04:51:10.786Z,59.17
2018-01-19T04:53:37.598Z,56.55
2018-01-19T04:56:04.676Z,55.80
2018-01-19T04:58:31.567Z,57.25
2018-01-19T05:00:58.678Z,48.55
2018-01-19T05:03:25.518Z,52.40
2018-01-19T05:05:52.341Z,50.40
2018-01-19T05:08:19.195Z,57.13
2018-01-19T05:10:46.034Z,53.05
2018-01-19T05:13:13.192Z,51.75
2018-01-19T05:15:40.240Z,45.67
2018-01-19T05:18:07.091Z,43.92
2018-01-19T05:20:33.917Z,52.22
2018-01-19T05:23:00.978Z,50.80
2018-01-19T05:25:28.135Z,48.22
2018-01-19T05:27:54.969Z,46.83
2018-01-19T05:30:22.047Z,51.63
2018-01-19T05:32:48.882Z,46.78
2018-01-19T05:35:15.709Z,50.00
2018-01-19T05:37:42.550Z,55.10
2018-01-19T05:40:09.382Z,43.58
2018-01-19T05:42:36.255Z,48.03
2018-01-19T05:45:03.065Z,45.58
2018-01-19T05:47:29.915Z,51.83
2018-01-19T05:49:57.074Z,51.67
2018-01-19T05:52:24.227Z,50.25
2018-01-19T05:54:51.068Z,52.08
2018-01-19T05:57:17.922Z,51.30
2018-01-19T05:59:44.998Z,53.25
2018-01-19T06:02:11.806Z,52.33
2018-01-19T06:04:38.955Z,53.43
2018-01-19T06:07:05.794Z,50.47
2018-01-19T06:09:32.597Z,57.72
2018-01-19T06:11:59.459Z,51.33
2018-01-19T06:14:26.298Z,52.60
2018-01-19T06:16:53.369Z,45.72
2018-01-19T06:19:20.527Z,47.40
2018-01-19T06:21:47.329Z,48.20
2018-01-19T06:24:14.137Z,59.33
2018-01-19T06:26:41.007Z,52.25
2018-01-19T06:29:07.817Z,59.63
2018-01-19T06:31:34.625Z,58.20
2018-01-19T06:34:01.462Z,64.55
2018-01-19T06:36:28.302Z,61.42
2018-01-19T06:38:55.371Z,57.55
2018-01-19T06:41:22.209Z,58.47
2018-01-19T06:43:49.020Z,62.90
2018-01-19T06:46:15.859Z,51.58
2018-01-19T06:48:42.945Z,49.35
2018-01-19T06:51:09.786Z,50.35
2018-01-19T06:53:36.623Z,50.80
2018-01-19T06:56:03.453Z,55.58
2018-01-19T06:58:30.273Z,53.35
2018-01-19T07:00:57.093Z,49.47
2018-01-19T07:03:24.210Z,58.42
2018-01-19T07:05:51.029Z,63.35
2018-01-19T07:08:18.097Z,61.58
2018-01-19T07:10:44.982Z,68.55
2018-01-19T07:13:11.830Z,53.80
2018-01-19T07:15:38.645Z,53.60
2018-01-19T07:18:05.487Z,47.67
2018-01-19T07:20:32.322Z,50.03
2018-01-19T07:22:59.163Z,54.15
2018-01-19T07:25:26.419Z,49.40
2018-01-19T07:27:53.225Z,53.15
2018-01-19T07:30:20.315Z,50.25
2018-01-19T07:32:47.458Z,60.38
2018-01-19T07:35:14.503Z,52.55
2018-01-19T07:37:41.313Z,50.15
2018-01-19T07:40:08.181Z,51.90
2018-01-19T07:42:34.999Z,49.05
2018-01-19T07:45:01.822Z,43.13
2018-01-19T07:47:28.699Z,52.05
2018-01-19T07:49:55.505Z,57.05
2018-01-19T07:52:22.614Z,50.78
2018-01-19T07:54:49.449Z,54.65
2018-01-19T07:57:16.301Z,54.67
2018-01-19T07:59:43.155Z,49.40
2018-01-19T08:02:10.027Z,46.67
2018-01-19T08:04:36.838Z,44.72
2018-01-19T08:07:03.653Z,50.12
2018-01-19T08:09:30.518Z,49.83
2018-01-19T08:11:57.870Z,62.77
2018-01-19T08:14:24.731Z,60.00
2018-01-19T08:16:51.935Z,46.60
2018-01-19T08:19:19.134Z,45.97
2018-01-19T08:21:45.946Z,52.70
2018-01-19T08:24:12.814Z,46.00
2018-01-19T08:26:39.949Z,64.22
2018-01-19T08:29:06.761Z,54.10
2018-01-19T08:31:33.622Z,52.55
2018-01-19T08:34:00.686Z,42.97
2018-01-19T08:36:27.527Z,52.43
2018-01-19T08:38:54.381Z,49.70
2018-01-19T08:41:21.523Z,52.30
2018-01-19T08:43:48.325Z,49.90
2018-01-19T08:46:15.176Z,48.53
2018-01-19T08:48:41.985Z,38.75
2018-01-19T08:51:08.793Z,38.88
2018-01-19T08:53:35.658Z,48.80
2018-01-19T08:56:02.502Z,41.13
2018-01-19T08:58:29.631Z,41.42
2018-01-19T09:00:56.465Z,39.92
2018-01-19T09:03:23.282Z,38.38
2018-01-19T09:05:50.108Z,44.63
2018-01-19T09:08:16.949Z,41.13
2018-01-19T09:10:44.051Z,39.40
2018-01-19T09:13:10.887Z,39.67
2018-01-19T09:15:37.758Z,35.55
2018-01-19T09:18:04.896Z,43.30
2018-01-19T09:20:31.747Z,39.88
2018-01-19T09:22:58.982Z,39.25
2018-01-19T09:25:25.794Z,42.60
2018-01-19T09:27:52.637Z,37.22
2018-01-19T09:30:19.481Z,34.20
2018-01-19T09:32:46.330Z,45.88
2018-01-19T09:35:13.146Z,38.38
2018-01-19T09:37:40.047Z,38.97
2018-01-19T09:40:06.893Z,42.22
2018-01-19T09:42:33.699Z,49.25
2018-01-19T09:45:00.543Z,37.10
2018-01-19T09:47:27.382Z,35.78
2018-01-19T09:49:54.223Z,45.90
2018-01-19T09:52:21.301Z,38.03
2018-01-19T09:54:48.113Z,28.23
2018-01-19T09:57:14.974Z,35.27
2018-01-19T09:59:41.807Z,34.33
2018-01-19T10:02:08.632Z,31.55
2018-01-19T10:04:35.470Z,38.65
2018-01-19T10:07:02.370Z,37.78
2018-01-19T10:09:29.288Z,34.80
2018-01-19T10:11:56.156Z,32.53
2018-01-19T10:14:23.758Z,31.37
2018-01-19T10:16:50.594Z,39.67
2018-01-19T10:19:17.703Z,32.50
2018-01-19T10:21:44.582Z,39.40
2018-01-19T10:24:11.418Z,33.33
2018-01-19T10:26:38.231Z,34.50
2018-01-19T10:29:05.386Z,34.78
2018-01-19T10:31:32.226Z,34.20
2018-01-19T10:33:59.072Z,30.52
2018-01-19T10:36:25.932Z,33.90
2018-01-19T10:38:52.743Z,23.75
2018-01-19T10:41:19.805Z,27.60
2018-01-19T10:43:46.686Z,26.08
2018-01-19T10:46:13.529Z,26.70
2018-01-19T10:48:40.337Z,29.43
2018-01-19T10:51:07.166Z,30.10
2018-01-19T10:53:34.225Z,23.08
2018-01-19T10:56:01.039Z,20.70
2018-01-19T10:58:27.916Z,27.40
2018-01-19T11:00:54.717Z,24.67
2018-01-19T11:03:21.559Z,27.30
2018-01-19T11:05:48.431Z,26.62
2018-01-19T11:08:15.485Z,27.60
2018-01-19T11:10:42.294Z,25.83
2018-01-19T11:13:09.139Z,28.58
2018-01-19T11:15:35.991Z,24.63
2018-01-19T11:18:02.806Z,23.27
2018-01-19T11:20:30.015Z,24.80
2018-01-19T11:22:57.166Z,27.70
2018-01-19T11:25:23.968Z,25.75
2018-01-19T11:27:50.810Z,30.73
2018-01-19T11:30:17.849Z,28.20
2018-01-19T11:32:44.942Z,30.50
2018-01-19T11:35:12.101Z,30.40
2018-01-19T11:37:38.942Z,31.00
2018-01-19T11:40:05.753Z,30.70
2018-01-19T11:42:32.582Z,30.80
2018-01-19T11:44:59.669Z,34.50
2018-01-19T11:47:26.722Z,27.65
2018-01-19T11:49:53.594Z,33.10
2018-01-19T11:52:20.434Z,31.52
2018-01-19T11:54:47.274Z,34.38
2018-01-19T11:57:14.107Z,32.83
2018-01-19T11:59:40.953Z,26.40
2018-01-19T12:02:07.761Z,33.47
2018-01-19T12:04:34.931Z,40.47
2018-01-19T12:07:02.082Z,30.07
2018-01-19T12:09:28.926Z,34.95
2018-01-19T12:11:55.793Z,34.58
2018-01-19T12:14:22.867Z,31.70
2018-01-19T12:16:49.715Z,29.37
2018-01-19T12:19:16.590Z,34.38
2018-01-19T12:21:43.394Z,32.33
2018-01-19T12:24:10.205Z,31.33
2018-01-19T12:26:37.041Z,32.95
2018-01-19T12:29:03.898Z,36.20
2018-01-19T12:31:30.741Z,35.30
2018-01-19T12:33:57.868Z,34.97
2018-01-19T12:36:24.677Z,42.88
2018-01-19T12:38:51.757Z,42.13
2018-01-19T12:41:18.596Z,37.88
2018-01-19T12:43:45.429Z,44.15
2018-01-19T12:46:12.238Z,44.42
2018-01-19T12:48:39.093Z,52.03
2018-01-19T12:51:05.947Z,49.22
2018-01-19T12:53:32.794Z,53.80
2018-01-19T12:55:59.965Z,58.63
2018-01-19T12:58:26.785Z,55.67
2018-01-19T13:00:53.627Z,62.67
2018-01-19T13:03:20.469Z,59.42
2018-01-19T13:05:47.339Z,59.95
2018-01-19T13:08:14.174Z,73.15
2018-01-19T13:10:41.342Z,60.67
2018-01-19T13:13:08.187Z,58.17
2018-01-19T13:15:35.325Z,63.65
2018-01-19T13:18:02.194Z,61.45
2018-01-19T13:20:29.326Z,56.53
2018-01-19T13:22:56.158Z,65.10
2018-01-19T13:25:23.022Z,61.67
2018-01-19T13:27:49.842Z,53.55
2018-01-19T13:30:16.653Z,66.10
2018-01-19T13:32:43.847Z,69.37
2018-01-19T13:35:10.691Z,69.32
2018-01-19T13:37:37.502Z,70.22
2018-01-19T13:40:04.366Z,66.62
2018-01-19T13:42:31.226Z,62.70
2018-01-19T13:44:58.034Z,59.33
2018-01-19T13:47:25.962Z,70.35
2018-01-19T13:49:52.811Z,64.97
2018-01-19T13:52:19.650Z,60.65
2018-01-19T13:54:46.543Z,59.83
2018-01-19T13:57:13.709Z,54.85
2018-01-19T13:59:40.558Z,54.80
2018-01-19T14:02:07.453Z,42.47
2018-01-19T14:04:34.298Z,47.10
2018-01-19T14:07:01.134Z,46.97
2018-01-19T14:09:28.015Z,47.72
2018-01-19T14:11:55.068Z,39.85
2018-01-19T14:14:22.229Z,42.40
2018-01-19T14:16:49.112Z,50.67
2018-01-19T14:19:15.967Z,38.70
2018-01-19T14:21:42.798Z,34.55
2018-01-19T14:24:09.685Z,35.90
2018-01-19T14:26:36.565Z,32.75
2018-01-19T14:29:03.446Z,34.70
2018-01-19T14:31:30.309Z,34.05
2018-01-19T14:33:57.132Z,28.23
2018-01-19T14:36:23.949Z,30.10
2018-01-19T14:38:50.827Z,33.10
2018-01-19T14:41:17.656Z,31.60
2018-01-19T14:43:44.753Z,31.67
2018-01-19T14:46:11.660Z,33.08
2018-01-19T14:48:38.746Z,33.40
2018-01-19T14:51:05.904Z,33.22
2018-01-19T14:53:32.770Z,33.63
2018-01-19T14:55:59.889Z,36.28
2018-01-19T14:58:26.711Z,37.40
2018-01-19T15:00:53.556Z,32.35
2018-01-19T15:03:20.737Z,36.22
2018-01-19T15:05:47.879Z,34.73
2018-01-19T15:08:14.752Z,37.47
2018-01-19T15:10:41.612Z,33.03
2018-01-19T15:13:08.658Z,36.70
2018-01-19T15:15:35.554Z,37.10
2018-01-19T15:18:02.429Z,37.47
2018-01-19T15:20:29.795Z,36.55
2018-01-19T15:22:56.688Z,39.80
2018-01-19T15:25:23.552Z,43.90
2018-01-19T15:27:50.621Z,41.95
2018-01-19T15:30:17.855Z,44.17
2018-01-19T15:32:44.707Z,44.67
2018-01-19T15:35:11.551Z,41.60
2018-01-19T15:37:38.418Z,44.17
2018-01-19T15:40:05.226Z,45.50
2018-01-19T15:42:32.124Z,47.58
2018-01-19T15:44:58.954Z,49.10
2018-01-19T15:47:25.802Z,50.17
2018-01-19T15:49:52.893Z,49.15
2018-01-19T15:52:19.758Z,58.28
2018-01-19T15:54:46.891Z,45.25
2018-01-19T15:57:13.697Z,48.70
2018-01-19T15:59:40.572Z,46.03
2018-01-19T16:02:07.414Z,43.97
2018-01-19T16:04:34.570Z,47.53
2018-01-19T16:07:01.729Z,46.08
2018-01-19T16:09:28.871Z,46.30
2018-01-19T16:11:56.022Z,50.42
2018-01-19T16:14:23.174Z,47.65
2018-01-19T16:16:50.017Z,50.33
2018-01-19T16:19:17.170Z,48.77
2018-01-19T16:21:44.030Z,56.92
2018-01-19T16:24:11.159Z,59.20
2018-01-19T16:26:38.310Z,58.20
2018-01-19T16:29:05.480Z,50.60
2018-01-19T16:31:32.326Z,63.13
2018-01-19T16:33:59.166Z,58.97
2018-01-19T16:36:26.016Z,62.40
2018-01-19T16:38:53.098Z,64.28
2018-01-19T16:41:20.190Z,59.95
2018-01-19T16:43:47.017Z,65.63
2018-01-19T16:46:13.829Z,65.40
2018-01-19T16:48:40.670Z,63.80
2018-01-19T16:51:07.517Z,66.47
2018-01-19T16:53:34.328Z,71.22
2018-01-19T16:56:01.189Z,67.65
2018-01-19T16:58:28.418Z,68.45
2018-01-19T17:00:55.274Z,78.83
2018-01-19T17:03:22.113Z,66.53
2018-01-19T17:05:48.974Z,64.15
2018-01-19T17:08:16.091Z,70.45
2018-01-19T17:10:42.955Z,72.97
2018-01-19T17:13:09.863Z,63.33
2018-01-19T17:15:37.017Z,64.03
2018-01-19T17:18:04.168Z,61.85
2018-01-19T17:20:31.067Z,59.45
2018-01-19T17:22:57.946Z,62.90
2018-01-19T17:25:24.754Z,72.53
2018-01-19T17:27:51.593Z,61.30
2018-01-19T17:30:18.691Z,59.20
2018-01-19T17:32:45.843Z,61.55
2018-01-19T17:35:12.993Z,61.60
2018-01-19T17:37:39.828Z,59.67
2018-01-19T17:40:06.877Z,62.38
2018-01-19T17:42:33.763Z,66.17
2018-01-19T17:45:00.586Z,62.58
2018-01-19T17:47:27.464Z,75.70
2018-01-19T17:49:54.343Z,66.32
2018-01-19T17:52:21.165Z,61.22
2018-01-19T17:54:48.031Z,64.22
2018-01-19T17:57:15.199Z,58.50
2018-01-19T17:59:42.055Z,66.07
2018-01-19T18:02:09.145Z,65.03
2018-01-19T18:04:36.350Z,67.75
2018-01-19T18:07:03.196Z,63.13
2018-01-19T18:09:30.031Z,74.72
2018-01-19T18:11:56.867Z,63.70
2018-01-19T18:14:23.706Z,67.33
2018-01-19T18:16:50.753Z,68.72
2018-01-19T18:19:17.722Z,64.10
2018-01-19T18:21:44.855Z,62.80
2018-01-19T18:24:11.703Z,77.10
2018-01-19T18:26:38.545Z,75.87
2018-01-19T18:29:05.403Z,78.15
2018-01-19T18:31:32.209Z,81.43
2018-01-19T18:33:59.316Z,64.45
2018-01-19T18:36:26.175Z,79.03
2018-01-19T18:38:53.269Z,76.22
2018-01-19T18:41:20.135Z,74.68
2018-01-19T18:43:47.262Z,76.43
2018-01-19T18:46:14.112Z,64.65
2018-01-19T18:48:40.978Z,73.35
2018-01-19T18:51:07.806Z,60.92
2018-01-19T18:53:34.938Z,66.37
2018-01-19T18:56:01.781Z,65.82
2018-01-19T18:58:28.602Z,72.70
2018-01-19T19:00:55.459Z,67.00
2018-01-19T19:03:22.318Z,66.97
2018-01-19T19:05:49.158Z,62.85
2018-01-19T19:08:16.007Z,64.40
2018-01-19T19:10:42.878Z,67.47
2018-01-19T19:13:09.695Z,64.30
2018-01-19T19:15:36.513Z,74.87
2018-01-19T19:18:03.673Z,67.05
2018-01-19T19:20:30.519Z,67.25
2018-01-19T19:22:57.675Z,60.38
2018-01-19T19:25:24.823Z,63.67
2018-01-19T19:27:51.974Z,64.87
2018-01-19T19:30:19.126Z,59.50
2018-01-19T19:32:45.965Z,68.20
2018-01-19T19:35:12.779Z,61.17
2018-01-19T19:37:39.853Z,61.15
2018-01-19T19:40:07.010Z,60.35
2018-01-19T19:42:33.818Z,65.20
2018-01-19T19:45:00.897Z,58.77
2018-01-19T19:47:28.062Z,62.00
2018-01-19T19:49:55.197Z,58.13
2018-01-19T19:52:22.363Z,65.05
2018-01-19T19:54:49.236Z,57.67
2018-01-19T19:57:16.265Z,56.33
2018-01-19T19:59:43.118Z,60.80
2018-01-19T20:02:10.009Z,58.75
2018-01-19T20:04:36.870Z,55.90
2018-01-19T20:07:04.023Z,58.40
2018-01-19T20:09:31.175Z,57.13
2018-01-19T20:11:57.977Z,60.63
2018-01-19T20:14:24.830Z,58.38
2018-01-19T20:16:51.694Z,59.42
2018-01-19T20:19:18.751Z,56.30
2018-01-19T20:21:45.905Z,63.33
2018-01-19T20:24:12.746Z,66.70
2018-01-19T20:26:39.889Z,63.97
2018-01-19T20:29:06.714Z,61.60
2018-01-19T20:31:33.892Z,57.70
2018-01-19T20:34:00.702Z,65.12
2018-01-19T20:36:27.558Z,60.67
2018-01-19T20:38:54.725Z,59.63
2018-01-19T20:41:21.562Z,61.10
2018-01-19T20:43:48.722Z,58.95
2018-01-19T20:46:15.582Z,57.40
2018-01-19T20:48:42.710Z,56.75
2018-01-19T20:51:09.757Z,59.47
2018-01-19T20:53:36.825Z,59.20
2018-01-19T20:56:03.866Z,56.70
2018-01-19T20:58:30.718Z,65.60
2018-01-19T21:00:57.850Z,62.25
2018-01-19T21:03:24.893Z,65.00
2018-01-19T21:05:52.045Z,63.67
2018-01-19T21:08:18.881Z,58.23
2018-01-19T21:10:45.730Z,59.28
2018-01-19T21:13:12.537Z,58.60
2018-01-19T21:15:39.374Z,56.17
2018-01-19T21:18:06.185Z,53.35
2018-01-19T21:20:33.240Z,56.50
2018-01-19T21:23:00.110Z,55.53
2018-01-19T21:25:27.306Z,54.78
2018-01-19T21:27:54.126Z,57.73
2018-01-19T21:30:20.953Z,55.22
2018-01-19T21:32:47.770Z,51.28
2018-01-19T21:35:14.587Z,56.10
2018-01-19T21:37:41.726Z,49.33
2018-01-19T21:40:08.878Z,56.95
2018-01-19T21:42:35.686Z,59.67
2018-01-19T21:45:02.556Z,54.87
2018-01-19T21:47:29.375Z,58.87
2018-01-19T21:49:56.185Z,55.75
2018-01-19T21:52:23.293Z,53.20
2018-01-19T21:54:50.110Z,54.60
2018-01-19T21:57:16.922Z,48.67
2018-01-19T21:59:43.783Z,53.40
2018-01-19T22:02:10.607Z,51.33
2018-01-19T22:04:37.459Z,52.65
2018-01-19T22:07:04.305Z,50.72
2018-01-19T22:09:31.511Z,53.13
2018-01-19T22:11:58.652Z,48.00
2018-01-19T22:14:25.514Z,49.43
2018-01-19T22:16:52.362Z,47.70
2018-01-19T22:19:19.202Z,47.22
2018-01-19T22:21:46.338Z,48.70
2018-01-19T22:24:13.486Z,52.33
2018-01-19T22:26:40.529Z,51.25
2018-01-19T22:29:07.399Z,54.65
2018-01-19T22:31:34.530Z,53.22
2018-01-19T22:34:01.346Z,56.17
2018-01-19T22:36:28.295Z,59.70
2018-01-19T22:38:55.135Z,54.65
2018-01-19T22:41:21.970Z,58.30
2018-01-19T22:43:49.066Z,56.30
2018-01-19T22:46:15.914Z,60.15
2018-01-19T22:48:42.758Z,65.10
2018-01-19T22:51:09.597Z,65.97
2018-01-19T22:53:36.728Z,63.00
2018-01-19T22:56:03.574Z,60.88
2018-01-19T22:58:30.425Z,68.78
2018-01-19T23:00:57.570Z,63.90
2018-01-19T23:03:24.718Z,65.57
2018-01-19T23:05:51.552Z,55.40
2018-01-19T23:08:18.606Z,59.53
2018-01-19T23:10:45.762Z,55.40
2018-01-19T23:13:12.610Z,63.20
2018-01-19T23:15:39.458Z,53.70
2018-01-19T23:18:06.598Z,55.05
2018-01-19T23:20:33.440Z,63.28
2018-01-19T23:23:00.547Z,62.17
2018-01-19T23:25:27.365Z,53.50
2018-01-19T23:27:54.254Z,55.90
2018-01-19T23:30:21.317Z,57.30
2018-01-19T23:32:48.401Z,58.70
2018-01-19T23:35:15.266Z,56.10
2018-01-19T23:37:42.106Z,56.17
2018-01-19T23:40:08.954Z,55.47
2018-01-19T23:42:35.792Z,55.12
2018-01-19T23:45:02.648Z,56.13
2018-01-19T23:47:29.490Z,57.97
2018-01-19T23:49:56.340Z,55.33
2018-01-19T23:52:23.146Z,57.65
2018-01-19T23:54:49.982Z,54.10
2018-01-19T23:57:16.870Z,50.50
2018-01-19T23:59:43.698Z,50.83
